Time;durP1;ratioP1;P1;durP2;ratioP2;P2;SDS_P1;SDS_P2;PMS_P1;PMS_P2;Temp;Humidity;BMP_temperature;BMP_pressure;BME280_temperature;BME280_humidity;BME280_pressure;Samples;Min_cycle;Max_cycle;Signal;HPM_P1;HPM_P2
2023/01/17 00:00:08;;;;;;;;;;;;;;;;;;1038737;28;19948;-78
2023/01/17 00:00:39;;;;;;;;;;;;;;;;;;1038949;28;19967;-77
2023/01/17 00:01:09;;;;;;;;;;;;;;;;;;1038866;28;20008;-77
2023/01/17 00:01:40;;;;;;;;;;;;;;;;;;1039311;28;19920;-77
2023/01/17 00:02:11;;;;;;;;;;;;;;;;;;1045976;28;19916;-78
2023/01/17 00:02:42;;;;;;;;;;;;;;;;;;1043886;28;19959;-77
2023/01/17 00:03:13;;;;;;;;;;;;;;;;;;1043674;28;19988;-77
2023/01/17 00:10:21;;;;;;;;;;;;;;;;;;1047822;28;20374;-78
2023/01/17 00:10:52;;;;;;;;;;;;;;;;;;1043912;28;20364;-77
2023/01/17 00:11:23;;;;;;;;;;;;;;;;;;1043718;28;20043;-77
2023/01/17 00:11:54;;;;;;;;;;;;;;;;;;1044015;28;20363;-78
2023/01/17 00:12:25;;;;;;;;;;;;;;;;;;1043793;28;19912;-78
2023/01/17 00:12:56;;;;;;;;;;;;;;;;;;1043856;28;19966;-78
2023/01/17 00:13:27;;;;;;;;;;;;;;;;;;1043758;28;19913;-78
2023/01/17 00:13:59;;;;;;;;;;;;;;;;;;1044080;28;19913;-77
2023/01/17 00:14:30;;;;;;;;;;;;;;;;;;1043588;28;19959;-78
2023/01/17 00:15:01;;;;;;;;;;;;;;;;;;1044459;28;19919;-78
2023/01/17 00:15:33;;;;;;;;;;;;;;;;;;1044703;28;20280;-77
2023/01/17 00:16:04;;;;;;;;;;;;;;;;;;1048722;28;19959;-78
2023/01/17 00:16:34;;;;;;;;;;;;;;;;;;1048217;28;19919;-79
2023/01/17 00:17:05;;;;;;;;;;;;;;;;;;1043891;28;19963;-77
2023/01/17 00:17:36;;;;;;;;;;;;;;;;;;1043551;28;20402;-78
2023/01/17 00:18:07;;;;;;;;;;;;;;;;;;1043936;28;19940;-78
2023/01/17 00:18:38;;;;;;;;;;;;;;;;;;1043787;28;20485;-77
2023/01/17 00:26:01;;;;;;;;;;;;;;;;;;1044438;28;19928;-78
2023/01/17 00:26:32;;;;;;;;;;;;;;;;;;1042716;28;19909;-77
2023/01/17 01:33:39;;;;;;;;;;;;;;;;;;1045136;28;20490;-77
2023/01/17 01:34:10;;;;;;;;;;;;;;;;;;1043076;28;20348;-78
2023/01/17 01:34:41;;;;;;;;;;;;;;;;;;1043167;28;19912;-77
2023/01/17 01:35:12;;;;;;;;;;;;;;;;;;1043245;28;20418;-77
2023/01/17 01:35:43;;;;;;;;;;;;;;;;;;1043450;28;19962;-77
2023/01/17 01:36:13;;;;;;;;;;;;;;;;;;1047631;28;19909;-78
2023/01/17 01:36:44;;;;;;;;;;;;;;;;;;1047533;28;19912;-77
2023/01/17 01:37:15;;;;;;;;;;;;;;;;;;1043265;28;20057;-78
2023/01/17 01:37:46;;;;;;;;;;;;;;;;;;1043104;28;19920;-78
2023/01/17 01:38:17;;;;;;;;;;;;;;;;;;1042966;28;19913;-78
2023/01/17 01:38:49;;;;;;;;;;;;;;;;;;1039087;28;19920;-77
2023/01/17 01:39:19;;;;;;;;;;;;;;;;;;1035200;28;19921;-77
2023/01/17 01:39:50;;;;;;;;;;;;;;;;;;1038759;28;19936;-78
2023/01/17 01:40:21;;;;;;;;;;;;;;;;;;1039282;28;19909;-77
2023/01/17 01:40:52;;;;;;;;;;;;;;;;;;1043138;28;20024;-77
2023/01/17 01:41:23;;;;;;;;;;;;;;;;;;1043250;28;19968;-77
2023/01/17 01:41:54;;;;;;;;;;;;;;;;;;1042937;28;19909;-78
2023/01/17 01:42:25;;;;;;;;;;;;;;;;;;1039174;28;19909;-77
2023/01/17 01:42:55;;;;;;;;;;;;;;;;;;1039097;28;19909;-77
2023/01/17 01:43:26;;;;;;;;;;;;;;;;;;1039023;28;19909;-78
2023/01/17 01:43:57;;;;;;;;;;;;;;;;;;1038953;28;20400;-78
2023/01/17 01:44:28;;;;;;;;;;;;;;;;;;1035185;28;20004;-77
2023/01/17 01:44:59;;;;;;;;;;;;;;;;;;1039166;28;19916;-78
2023/01/17 01:45:31;;;;;;;;;;;;;;;;;;1043243;28;20417;-77
2023/01/17 01:46:01;;;;;;;;;;;;;;;;;;1043419;28;19952;-77
2023/01/17 01:46:32;;;;;;;;;;;;;;;;;;1043153;28;19909;-77
2023/01/17 01:47:03;;;;;;;;;;;;;;;;;;1043167;28;19909;-77
2023/01/17 01:47:34;;;;;;;;;;;;;;;;;;1043086;28;20476;-77
2023/01/17 01:48:05;;;;;;;;;;;;;;;;;;1042728;28;19993;-78
2023/01/17 01:48:36;;;;;;;;;;;;;;;;;;1043280;28;19986;-77
2023/01/17 01:49:07;;;;;;;;;;;;;;;;;;1039259;28;19917;-77
2023/01/17 01:49:38;;;;;;;;;;;;;;;;;;1039647;28;19913;-77
2023/01/17 01:50:08;;;;;;;;;;;;;;;;;;1043010;28;19913;-78
2023/01/17 01:50:39;;;;;;;;;;;;;;;;;;1043480;28;19912;-77
2023/01/17 01:51:10;;;;;;;;;;;;;;;;;;1039138;28;19943;-78
2023/01/17 01:51:41;;;;;;;;;;;;;;;;;;1038895;28;19913;-77
2023/01/17 01:52:12;;;;;;;;;;;;;;;;;;1038972;28;19913;-78
2023/01/17 01:52:43;;;;;;;;;;;;;;;;;;1039332;28;19960;-77
2023/01/17 01:53:14;;;;;;;;;;;;;;;;;;1039594;28;19913;-78
2023/01/17 01:53:45;;;;;;;;;;;;;;;;;;1043416;28;19995;-77
2023/01/17 01:54:16;;;;;;;;;;;;;;;;;;1043456;28;19988;-77
2023/01/17 01:54:46;;;;;;;;;;;;;;;;;;1047905;28;19913;-77
2023/01/17 01:55:17;;;;;;;;;;;;;;;;;;1043207;28;19962;-77
2023/01/17 01:55:48;;;;;;;;;;;;;;;;;;1043277;28;19912;-77
2023/01/17 01:56:19;;;;;;;;;;;;;;;;;;1043213;28;19988;-77
2023/01/17 01:56:50;;;;;;;;;;;;;;;;;;1043623;28;19939;-77
2023/01/17 01:57:21;;;;;;;;;;;;;;;;;;1047780;28;19912;-78
2023/01/17 01:57:52;;;;;;;;;;;;;;;;;;1047758;28;19912;-78
2023/01/17 01:58:23;;;;;;;;;;;;;;;;;;1047728;28;20270;-78
2023/01/17 01:58:53;;;;;;;;;;;;;;;;;;1047812;28;19944;-77
2023/01/17 01:59:25;;;;;;;;;;;;;;;;;;1047720;28;21377;-77
2023/01/17 01:59:56;;;;;;;;;;;;;;;;;;1047674;28;19912;-77
2023/01/17 02:00:28;;;;;;;;;;;;;;;;;;1043187;28;19913;-78
2023/01/17 02:00:58;;;;;;;;;;;;;;;;;;1039291;28;19920;-77
2023/01/17 02:01:29;;;;;;;;;;;;;;;;;;1039204;28;20000;-77
2023/01/17 02:02:00;;;;;;;;;;;;;;;;;;1035073;28;20384;-78
2023/01/17 02:02:31;;;;;;;;;;;;;;;;;;1035263;28;19914;-77
2023/01/17 02:03:02;;;;;;;;;;;;;;;;;;1035233;28;19959;-77
2023/01/17 02:03:33;;;;;;;;;;;;;;;;;;1035367;28;20051;-78
2023/01/17 02:04:08;;;;;;;;;;;;;;;;;;1039196;28;19913;-77
2023/01/17 02:04:39;;;;;;;;;;;;;;;;;;1039225;28;19920;-77
2023/01/17 02:05:10;;;;;;;;;;;;;;;;;;1039158;28;19924;-77
2023/01/17 02:05:42;;;;;;;;;;;;;;;;;;1038435;28;19913;-77
2023/01/17 02:06:13;;;;;;;;;;;;;;;;;;1035226;28;19921;-77
2023/01/17 02:06:44;;;;;;;;;;;;;;;;;;1035371;28;19916;-77
2023/01/17 02:07:15;;;;;;;;;;;;;;;;;;1037432;28;19949;-77
2023/01/17 02:07:45;;;;;;;;;;;;;;;;;;1039701;28;20442;-78
2023/01/17 02:08:16;;;;;;;;;;;;;;;;;;1043117;28;20583;-77
2023/01/17 02:08:48;;;;;;;;;;;;;;;;;;1043637;28;19913;-78
2023/01/17 02:09:18;;;;;;;;;;;;;;;;;;1047342;28;19912;-77
2023/01/17 02:09:49;;;;;;;;;;;;;;;;;;1043469;28;19998;-77
2023/01/17 02:10:20;;;;;;;;;;;;;;;;;;1043245;28;19912;-78
2023/01/17 02:10:51;;;;;;;;;;;;;;;;;;1043475;28;20509;-78
2023/01/17 02:11:22;;;;;;;;;;;;;;;;;;1043095;28;19908;-78
2023/01/17 02:11:53;;;;;;;;;;;;;;;;;;1039648;28;20374;-77
2023/01/17 02:12:24;;;;;;;;;;;;;;;;;;1042811;28;19908;-77
2023/01/17 02:12:54;;;;;;;;;;;;;;;;;;1039470;28;19913;-77
2023/01/17 02:13:27;;;;;;;;;;;;;;;;;;1039318;28;20395;-77
2023/01/17 02:13:58;;;;;;;;;;;;;;;;;;1045258;28;20011;-77
2023/01/17 02:14:28;;;;;;;;;;;;;;;;;;1047258;28;19917;-77
2023/01/17 02:14:59;;;;;;;;;;;;;;;;;;1043668;28;19951;-78
2023/01/17 02:15:30;;;;;;;;;;;;;;;;;;1042943;28;20577;-78
2023/01/17 02:16:01;;;;;;;;;;;;;;;;;;1043592;28;19919;-78
2023/01/17 02:16:32;;;;;;;;;;;;;;;;;;1042851;28;19924;-78
2023/01/17 02:17:03;;;;;;;;;;;;;;;;;;1043840;28;19957;-77
2023/01/17 02:17:34;;;;;;;;;;;;;;;;;;1042911;28;19912;-77
2023/01/17 02:18:05;;;;;;;;;;;;;;;;;;1043614;28;20466;-78
2023/01/17 02:18:35;;;;;;;;;;;;;;;;;;1043093;28;19916;-77
2023/01/17 02:19:06;;;;;;;;;;;;;;;;;;1043549;28;19913;-78
2023/01/17 02:19:37;;;;;;;;;;;;;;;;;;1043152;28;20667;-78
2023/01/17 02:20:08;;;;;;;;;;;;;;;;;;1043366;28;19909;-78
2023/01/17 02:20:39;;;;;;;;;;;;;;;;;;1043162;28;19913;-78
2023/01/17 02:21:10;;;;;;;;;;;;;;;;;;1043399;28;19944;-78
2023/01/17 02:21:41;;;;;;;;;;;;;;;;;;1039258;28;19931;-77
2023/01/17 02:22:12;;;;;;;;;;;;;;;;;;1043337;28;19913;-77
2023/01/17 02:22:42;;;;;;;;;;;;;;;;;;1043306;28;19920;-77
2023/01/17 02:23:13;;;;;;;;;;;;;;;;;;1039311;28;19913;-77
2023/01/17 02:23:44;;;;;;;;;;;;;;;;;;1043282;28;19912;-77
2023/01/17 02:24:15;;;;;;;;;;;;;;;;;;1043208;28;20446;-78
2023/01/17 02:24:46;;;;;;;;;;;;;;;;;;1043562;28;19920;-77
2023/01/17 02:25:17;;;;;;;;;;;;;;;;;;1043270;28;19913;-77
2023/01/17 02:25:48;;;;;;;;;;;;;;;;;;1043298;28;20263;-77
2023/01/17 02:26:19;;;;;;;;;;;;;;;;;;1043018;28;19908;-77
2023/01/17 02:26:49;;;;;;;;;;;;;;;;;;1043311;28;20015;-78
2023/01/17 02:27:20;;;;;;;;;;;;;;;;;;1043142;28;20433;-77
2023/01/17 02:27:51;;;;;;;;;;;;;;;;;;1042970;28;19932;-77
2023/01/17 02:28:22;;;;;;;;;;;;;;;;;;1035223;28;20714;-78
2023/01/17 02:28:53;;;;;;;;;;;;;;;;;;1039214;28;19920;-77
2023/01/17 02:29:24;;;;;;;;;;;;;;;;;;1039188;28;19913;-77
2023/01/17 02:29:55;;;;;;;;;;;;;;;;;;1042143;28;20388;-77
2023/01/17 02:30:25;;;;;;;;;;;;;;;;;;1043154;28;19913;-77
2023/01/17 02:30:56;;;;;;;;;;;;;;;;;;1043460;28;19913;-77
2023/01/17 02:31:27;;;;;;;;;;;;;;;;;;1042836;28;19923;-78
2023/01/17 02:31:58;;;;;;;;;;;;;;;;;;1043075;28;20054;-77
2023/01/17 02:32:29;;;;;;;;;;;;;;;;;;1043041;28;19913;-77
2023/01/17 02:33:00;;;;;;;;;;;;;;;;;;1039457;28;19919;-78
2023/01/17 02:33:31;;;;;;;;;;;;;;;;;;1043071;28;20007;-78
2023/01/17 02:34:02;;;;;;;;;;;;;;;;;;1043620;28;19927;-78
2023/01/17 02:34:32;;;;;;;;;;;;;;;;;;1042909;28;19963;-78
2023/01/17 02:35:03;;;;;;;;;;;;;;;;;;1043650;28;19915;-78
2023/01/17 02:35:34;;;;;;;;;;;;;;;;;;1043088;28;19913;-78
2023/01/17 02:36:05;;;;;;;;;;;;;;;;;;1043616;28;19919;-77
2023/01/17 02:36:36;;;;;;;;;;;;;;;;;;1047307;28;19916;-77
2023/01/17 02:37:07;;;;;;;;;;;;;;;;;;1048009;28;19912;-77
2023/01/17 02:37:38;;;;;;;;;;;;;;;;;;1042787;28;19913;-77
2023/01/17 02:38:09;;;;;;;;;;;;;;;;;;1039003;28;19920;-78
2023/01/17 02:38:39;;;;;;;;;;;;;;;;;;1038910;28;19913;-77
2023/01/17 02:39:10;;;;;;;;;;;;;;;;;;1039392;28;19956;-78
2023/01/17 02:39:44;;;;;;;;;;;;;;;;;;1042147;28;19923;-77
2023/01/17 02:40:15;;;;;;;;;;;;;;;;;;1036133;28;19910;-78
2023/01/17 02:40:46;;;;;;;;;;;;;;;;;;1043046;28;19908;-77
2023/01/17 02:41:17;;;;;;;;;;;;;;;;;;1043559;28;20371;-77
2023/01/17 02:41:48;;;;;;;;;;;;;;;;;;1039987;28;19941;-78
2023/01/17 02:42:19;;;;;;;;;;;;;;;;;;1039234;28;19979;-78
2023/01/17 02:42:50;;;;;;;;;;;;;;;;;;1039121;28;19932;-78
2023/01/17 02:43:21;;;;;;;;;;;;;;;;;;1041176;28;19909;-78
2023/01/17 02:43:52;;;;;;;;;;;;;;;;;;1042996;28;19958;-77
2023/01/17 02:44:23;;;;;;;;;;;;;;;;;;1042166;28;19908;-78
2023/01/17 02:44:53;;;;;;;;;;;;;;;;;;1038958;28;19905;-77
2023/01/17 02:45:24;;;;;;;;;;;;;;;;;;1039396;28;19909;-79
2023/01/17 02:45:55;;;;;;;;;;;;;;;;;;1043430;28;19916;-77
2023/01/17 02:46:26;;;;;;;;;;;;;;;;;;1047714;28;20023;-78
2023/01/17 02:46:58;;;;;;;;;;;;;;;;;;1043028;28;19908;-77
2023/01/17 02:47:28;;;;;;;;;;;;;;;;;;1043148;28;19916;-77
2023/01/17 02:47:59;;;;;;;;;;;;;;;;;;1043019;28;19999;-78
2023/01/17 02:48:31;;;;;;;;;;;;;;;;;;1043416;28;19935;-78
2023/01/17 02:49:01;;;;;;;;;;;;;;;;;;1043329;28;19916;-77
2023/01/17 02:49:32;;;;;;;;;;;;;;;;;;1043066;28;19931;-77
2023/01/17 02:50:03;;;;;;;;;;;;;;;;;;1043127;28;20368;-77
2023/01/17 02:50:34;;;;;;;;;;;;;;;;;;1042966;28;20003;-77
2023/01/17 02:51:05;;;;;;;;;;;;;;;;;;1039022;28;19909;-78
2023/01/17 02:51:37;;;;;;;;;;;;;;;;;;1039013;28;20657;-77
2023/01/17 02:52:09;;;;;;;;;;;;;;;;;;1034991;28;19948;-77
2023/01/17 02:52:40;;;;;;;;;;;;;;;;;;1035057;28;19910;-77
2023/01/17 02:53:11;;;;;;;;;;;;;;;;;;1035018;28;20001;-77
2023/01/17 02:53:42;;;;;;;;;;;;;;;;;;1037867;28;19996;-77
2023/01/17 02:54:13;;;;;;;;;;;;;;;;;;1039180;28;19910;-78
2023/01/17 02:54:43;;;;;;;;;;;;;;;;;;1043472;28;20031;-77
2023/01/17 02:55:14;;;;;;;;;;;;;;;;;;1047512;28;19908;-77
2023/01/17 02:55:45;;;;;;;;;;;;;;;;;;1043225;28;19916;-78
2023/01/17 02:56:16;;;;;;;;;;;;;;;;;;1043086;28;19909;-76
2023/01/17 02:56:47;;;;;;;;;;;;;;;;;;1043189;28;19909;-78
2023/01/17 02:57:18;;;;;;;;;;;;;;;;;;1043258;28;20371;-77
2023/01/17 02:57:49;;;;;;;;;;;;;;;;;;1042951;28;19991;-78
2023/01/17 02:58:20;;;;;;;;;;;;;;;;;;1043291;28;19940;-77
2023/01/17 02:58:50;;;;;;;;;;;;;;;;;;1042983;28;19909;-78
2023/01/17 02:59:21;;;;;;;;;;;;;;;;;;1043197;28;20421;-78
2023/01/17 02:59:52;;;;;;;;;;;;;;;;;;1038916;28;19996;-78
2023/01/17 03:00:23;;;;;;;;;;;;;;;;;;1037008;28;19991;-79
2023/01/17 03:00:55;;;;;;;;;;;;;;;;;;1037741;28;19909;-77
2023/01/17 03:01:26;;;;;;;;;;;;;;;;;;1038148;28;19916;-77
2023/01/17 03:01:56;;;;;;;;;;;;;;;;;;1042760;28;19931;-78
2023/01/17 03:02:27;;;;;;;;;;;;;;;;;;1040746;28;19912;-79
2023/01/17 03:02:58;;;;;;;;;;;;;;;;;;1043199;28;19912;-77
2023/01/17 03:03:29;;;;;;;;;;;;;;;;;;1041870;28;20674;-77
2023/01/17 03:04:00;;;;;;;;;;;;;;;;;;1039015;28;19909;-78
2023/01/17 03:04:31;;;;;;;;;;;;;;;;;;1038963;28;19909;-78
2023/01/17 03:05:02;;;;;;;;;;;;;;;;;;1038969;28;19967;-78
2023/01/17 03:05:33;;;;;;;;;;;;;;;;;;1035459;28;19909;-77
2023/01/17 03:06:06;;;;;;;;;;;;;;;;;;1037793;28;19916;-79
2023/01/17 03:06:37;;;;;;;;;;;;;;;;;;1038193;28;20432;-77
2023/01/17 03:07:08;;;;;;;;;;;;;;;;;;1035277;28;20317;-77
2023/01/17 03:07:40;;;;;;;;;;;;;;;;;;1031527;28;19941;-77
2023/01/17 03:08:11;;;;;;;;;;;;;;;;;;1035052;28;19973;-77
2023/01/17 03:08:42;;;;;;;;;;;;;;;;;;1039622;28;20378;-77
2023/01/17 03:09:13;;;;;;;;;;;;;;;;;;1042784;28;20664;-77
2023/01/17 03:09:44;;;;;;;;;;;;;;;;;;1043731;28;19913;-77
2023/01/17 03:10:15;;;;;;;;;;;;;;;;;;1047215;28;19913;-77
2023/01/17 03:10:46;;;;;;;;;;;;;;;;;;1047818;28;19919;-77
2023/01/17 03:11:17;;;;;;;;;;;;;;;;;;1047485;28;19952;-77
2023/01/17 03:11:48;;;;;;;;;;;;;;;;;;1047746;28;20346;-76
2023/01/17 03:12:19;;;;;;;;;;;;;;;;;;1047209;28;19913;-77
2023/01/17 03:12:52;;;;;;;;;;;;;;;;;;1047801;28;19962;-77
2023/01/17 03:13:23;;;;;;;;;;;;;;;;;;1047370;28;19916;-77
2023/01/17 03:13:55;;;;;;;;;;;;;;;;;;1047819;28;19946;-76
2023/01/17 03:14:26;;;;;;;;;;;;;;;;;;1047348;28;20546;-77
2023/01/17 03:14:56;;;;;;;;;;;;;;;;;;1043197;28;20379;-77
2023/01/17 03:15:28;;;;;;;;;;;;;;;;;;1042722;28;19920;-78
2023/01/17 03:15:59;;;;;;;;;;;;;;;;;;1043386;28;19912;-77
2023/01/17 03:16:29;;;;;;;;;;;;;;;;;;1042862;28;19912;-78
2023/01/17 03:17:00;;;;;;;;;;;;;;;;;;1043561;28;19935;-76
2023/01/17 03:17:31;;;;;;;;;;;;;;;;;;1047400;28;20003;-77
2023/01/17 03:18:02;;;;;;;;;;;;;;;;;;1043267;28;19913;-78
2023/01/17 03:18:33;;;;;;;;;;;;;;;;;;1042684;28;19913;-78
2023/01/17 03:19:04;;;;;;;;;;;;;;;;;;1043422;28;20485;-77
2023/01/17 03:19:35;;;;;;;;;;;;;;;;;;1043092;28;19940;-77
2023/01/17 03:20:06;;;;;;;;;;;;;;;;;;1047703;28;20506;-77
2023/01/17 03:20:37;;;;;;;;;;;;;;;;;;1042819;28;19916;-76
2023/01/17 03:21:07;;;;;;;;;;;;;;;;;;1043065;28;20832;-77
2023/01/17 03:21:38;;;;;;;;;;;;;;;;;;1043029;28;19919;-77
2023/01/17 03:22:09;;;;;;;;;;;;;;;;;;1042871;28;20003;-77
2023/01/17 03:22:40;;;;;;;;;;;;;;;;;;1043220;28;20748;-77
2023/01/17 03:23:11;;;;;;;;;;;;;;;;;;1047334;28;19961;-77
2023/01/17 03:23:43;;;;;;;;;;;;;;;;;;1047232;28;20359;-76
2023/01/17 03:24:13;;;;;;;;;;;;;;;;;;1042976;28;19912;-77
2023/01/17 03:24:44;;;;;;;;;;;;;;;;;;1043251;28;19912;-77
2023/01/17 03:25:15;;;;;;;;;;;;;;;;;;1042922;28;19913;-77
2023/01/17 03:25:46;;;;;;;;;;;;;;;;;;1043411;28;19909;-77
2023/01/17 03:26:17;;;;;;;;;;;;;;;;;;1047408;28;19916;-77
2023/01/17 03:26:48;;;;;;;;;;;;;;;;;;1042838;28;19920;-77
2023/01/17 03:27:19;;;;;;;;;;;;;;;;;;1042958;28;20494;-77
2023/01/17 03:27:50;;;;;;;;;;;;;;;;;;1042985;28;19916;-77
2023/01/17 03:28:20;;;;;;;;;;;;;;;;;;1043303;28;20299;-76
2023/01/17 03:28:51;;;;;;;;;;;;;;;;;;1042984;28;19995;-77
2023/01/17 03:29:22;;;;;;;;;;;;;;;;;;1042921;28;19908;-77
2023/01/17 03:29:53;;;;;;;;;;;;;;;;;;1043173;28;19920;-77
2023/01/17 03:30:24;;;;;;;;;;;;;;;;;;1042937;28;20582;-77
2023/01/17 03:30:55;;;;;;;;;;;;;;;;;;1043337;28;20410;-76
2023/01/17 03:31:26;;;;;;;;;;;;;;;;;;1047573;28;19912;-76
2023/01/17 03:31:57;;;;;;;;;;;;;;;;;;1047014;28;19920;-77
2023/01/17 03:32:28;;;;;;;;;;;;;;;;;;1042833;28;20066;-77
2023/01/17 03:32:58;;;;;;;;;;;;;;;;;;1043073;28;19959;-76
2023/01/17 03:33:29;;;;;;;;;;;;;;;;;;1042938;28;19966;-77
2023/01/17 03:34:00;;;;;;;;;;;;;;;;;;1043212;28;19912;-77
2023/01/17 03:34:31;;;;;;;;;;;;;;;;;;1043153;28;19912;-77
2023/01/17 03:35:02;;;;;;;;;;;;;;;;;;1047480;28;19913;-76
2023/01/17 03:35:33;;;;;;;;;;;;;;;;;;1041152;28;19995;-77
2023/01/17 03:36:04;;;;;;;;;;;;;;;;;;1041426;28;19971;-76
2023/01/17 03:36:34;;;;;;;;;;;;;;;;;;1042810;28;20591;-76
2023/01/17 03:37:06;;;;;;;;;;;;;;;;;;1043301;28;19919;-77
2023/01/17 03:37:37;;;;;;;;;;;;;;;;;;1043109;28;19919;-76
2023/01/17 03:38:07;;;;;;;;;;;;;;;;;;1040180;28;19913;-76
2023/01/17 03:38:38;;;;;;;;;;;;;;;;;;1039633;28;19913;-76
2023/01/17 03:39:10;;;;;;;;;;;;;;;;;;1043117;28;19913;-76
2023/01/17 03:39:41;;;;;;;;;;;;;;;;;;1043583;28;19916;-76
2023/01/17 03:40:12;;;;;;;;;;;;;;;;;;1039434;28;20052;-76
2023/01/17 03:40:43;;;;;;;;;;;;;;;;;;1039410;28;19909;-76
2023/01/17 03:41:14;;;;;;;;;;;;;;;;;;1040040;28;19917;-76
2023/01/17 03:41:44;;;;;;;;;;;;;;;;;;1044052;28;19992;-76
2023/01/17 03:42:15;;;;;;;;;;;;;;;;;;1048105;28;19985;-76
2023/01/17 03:42:46;;;;;;;;;;;;;;;;;;1043724;28;19916;-76
2023/01/17 03:43:17;;;;;;;;;;;;;;;;;;1043833;28;19920;-76
2023/01/17 03:43:48;;;;;;;;;;;;;;;;;;1043695;28;19984;-76
2023/01/17 03:44:19;;;;;;;;;;;;;;;;;;1043769;28;19915;-76
2023/01/17 03:44:50;;;;;;;;;;;;;;;;;;1044324;28;19913;-77
2023/01/17 03:45:21;;;;;;;;;;;;;;;;;;1043980;28;19958;-76
2023/01/17 03:45:53;;;;;;;;;;;;;;;;;;1043599;28;19916;-77
2023/01/17 03:46:24;;;;;;;;;;;;;;;;;;1044082;28;20562;-77
2023/01/17 03:46:55;;;;;;;;;;;;;;;;;;1044192;28;20435;-77
2023/01/17 03:47:25;;;;;;;;;;;;;;;;;;1043767;28;19947;-76
2023/01/17 03:47:56;;;;;;;;;;;;;;;;;;1043638;28;20566;-77
2023/01/17 03:48:27;;;;;;;;;;;;;;;;;;1043985;28;19971;-78
2023/01/17 03:48:58;;;;;;;;;;;;;;;;;;1043723;28;19913;-77
2023/01/17 03:49:30;;;;;;;;;;;;;;;;;;1039696;28;19913;-76
2023/01/17 03:50:01;;;;;;;;;;;;;;;;;;1039554;28;19920;-77
2023/01/17 03:50:31;;;;;;;;;;;;;;;;;;1039760;28;19985;-76
2023/01/17 03:51:02;;;;;;;;;;;;;;;;;;1040025;28;19928;-77
2023/01/17 03:51:33;;;;;;;;;;;;;;;;;;1043866;28;19916;-77
2023/01/17 03:52:04;;;;;;;;;;;;;;;;;;1039948;28;20872;-77
2023/01/17 03:52:35;;;;;;;;;;;;;;;;;;1043526;28;19913;-77
2023/01/17 03:53:06;;;;;;;;;;;;;;;;;;1044090;28;20402;-77
2023/01/17 03:53:37;;;;;;;;;;;;;;;;;;1043910;28;19999;-77
2023/01/17 03:54:07;;;;;;;;;;;;;;;;;;1039992;28;20344;-77
2023/01/17 03:54:38;;;;;;;;;;;;;;;;;;1043956;28;20178;-76
2023/01/17 03:55:09;;;;;;;;;;;;;;;;;;1043850;28;20475;-76
2023/01/17 03:55:40;;;;;;;;;;;;;;;;;;1043775;28;19917;-77
2023/01/17 03:56:11;;;;;;;;;;;;;;;;;;1047173;28;19912;-77
2023/01/17 03:56:42;;;;;;;;;;;;;;;;;;1047986;28;19913;-76
2023/01/17 03:57:13;;;;;;;;;;;;;;;;;;1048252;28;19912;-76
2023/01/17 03:57:44;;;;;;;;;;;;;;;;;;1048319;28;20088;-77
2023/01/17 03:58:15;;;;;;;;;;;;;;;;;;1048191;28;19913;-77
2023/01/17 03:58:46;;;;;;;;;;;;;;;;;;1043837;28;19920;-77
2023/01/17 03:59:16;;;;;;;;;;;;;;;;;;1043434;28;19935;-77
2023/01/17 03:59:47;;;;;;;;;;;;;;;;;;1043928;28;20027;-77
2023/01/17 04:00:19;;;;;;;;;;;;;;;;;;1043702;28;19913;-77
2023/01/17 04:00:50;;;;;;;;;;;;;;;;;;1044115;28;19948;-77
2023/01/17 04:01:21;;;;;;;;;;;;;;;;;;1043695;28;20011;-76
2023/01/17 04:01:55;;;;;;;;;;;;;;;;;;1043766;28;19913;-76
2023/01/17 04:02:25;;;;;;;;;;;;;;;;;;1043807;28;19912;-77
2023/01/17 04:02:56;;;;;;;;;;;;;;;;;;1044281;28;19946;-76
2023/01/17 04:03:27;;;;;;;;;;;;;;;;;;1043663;28;19948;-77
2023/01/17 04:03:58;;;;;;;;;;;;;;;;;;1043786;28;19913;-77
2023/01/17 04:04:29;;;;;;;;;;;;;;;;;;1043683;28;19999;-76
2023/01/17 04:05:00;;;;;;;;;;;;;;;;;;1044270;28;19913;-75
2023/01/17 04:05:31;;;;;;;;;;;;;;;;;;1043877;28;20360;-76
2023/01/17 04:06:02;;;;;;;;;;;;;;;;;;1043518;28;19912;-77
2023/01/17 04:06:33;;;;;;;;;;;;;;;;;;1043663;28;19939;-76
2023/01/17 04:07:03;;;;;;;;;;;;;;;;;;1043826;28;19913;-77
2023/01/17 04:07:34;;;;;;;;;;;;;;;;;;1044028;28;19912;-76
2023/01/17 04:08:06;;;;;;;;;;;;;;;;;;1042834;28;19923;-77
2023/01/17 04:08:37;;;;;;;;;;;;;;;;;;1039861;28;19909;-76
2023/01/17 04:09:07;;;;;;;;;;;;;;;;;;1039490;28;19909;-77
2023/01/17 04:09:38;;;;;;;;;;;;;;;;;;1040073;28;19974;-76
2023/01/17 04:10:09;;;;;;;;;;;;;;;;;;1043395;28;20700;-75
2023/01/17 04:10:40;;;;;;;;;;;;;;;;;;1043941;28;19999;-76
2023/01/17 04:11:11;;;;;;;;;;;;;;;;;;1043520;28;19916;-77
2023/01/17 04:11:49;;;;;;;;;;;;;;;;;;1039896;28;20567;-77
2023/01/17 04:12:20;;;;;;;;;;;;;;;;;;1039543;28;20394;-76
2023/01/17 04:12:51;;;;;;;;;;;;;;;;;;1039694;28;20380;-77
2023/01/17 04:13:22;;;;;;;;;;;;;;;;;;1040502;28;19913;-77
2023/01/17 04:13:54;;;;;;;;;;;;;;;;;;1039681;28;19947;-77
2023/01/17 04:14:24;;;;;;;;;;;;;;;;;;1039582;28;19912;-76
2023/01/17 04:14:55;;;;;;;;;;;;;;;;;;1039728;28;20343;-77
2023/01/17 04:15:26;;;;;;;;;;;;;;;;;;1039770;28;19981;-77
2023/01/17 04:15:57;;;;;;;;;;;;;;;;;;1039829;28;19909;-76
2023/01/17 04:16:28;;;;;;;;;;;;;;;;;;1037176;28;19913;-77
2023/01/17 04:17:00;;;;;;;;;;;;;;;;;;1039860;28;20263;-77
2023/01/17 04:17:31;;;;;;;;;;;;;;;;;;1039784;28;19941;-76
2023/01/17 04:18:01;;;;;;;;;;;;;;;;;;1039898;28;19909;-77
2023/01/17 04:18:32;;;;;;;;;;;;;;;;;;1043630;28;20001;-76
2023/01/17 04:19:03;;;;;;;;;;;;;;;;;;1043909;28;19963;-77
2023/01/17 04:19:34;;;;;;;;;;;;;;;;;;1043156;28;19909;-77
2023/01/17 04:20:05;;;;;;;;;;;;;;;;;;1043825;28;20405;-76
2023/01/17 04:20:36;;;;;;;;;;;;;;;;;;1043407;28;19913;-77
2023/01/17 04:21:07;;;;;;;;;;;;;;;;;;1043980;28;20380;-76
2023/01/17 04:21:38;;;;;;;;;;;;;;;;;;1035288;28;19916;-76
2023/01/17 04:22:08;;;;;;;;;;;;;;;;;;1039961;28;19948;-76
2023/01/17 04:22:39;;;;;;;;;;;;;;;;;;1043408;28;19916;-76
2023/01/17 04:23:10;;;;;;;;;;;;;;;;;;1044009;28;20709;-76
2023/01/17 04:23:41;;;;;;;;;;;;;;;;;;1043526;28;20364;-77
2023/01/17 04:24:12;;;;;;;;;;;;;;;;;;1043562;28;19909;-77
2023/01/17 04:24:43;;;;;;;;;;;;;;;;;;1043802;28;19915;-77
2023/01/17 04:25:14;;;;;;;;;;;;;;;;;;1043717;28;20360;-76
2023/01/17 04:25:44;;;;;;;;;;;;;;;;;;1043621;28;19912;-76
2023/01/17 04:26:15;;;;;;;;;;;;;;;;;;1039576;28;20594;-76
2023/01/17 04:26:46;;;;;;;;;;;;;;;;;;1039493;28;19968;-76
2023/01/17 04:27:17;;;;;;;;;;;;;;;;;;1039551;28;20060;-76
2023/01/17 04:27:48;;;;;;;;;;;;;;;;;;1039578;28;19910;-76
2023/01/17 04:28:19;;;;;;;;;;;;;;;;;;1039649;28;19944;-77
2023/01/17 04:28:50;;;;;;;;;;;;;;;;;;1043756;28;19962;-75
2023/01/17 04:29:21;;;;;;;;;;;;;;;;;;1043484;28;19956;-76
2023/01/17 04:29:51;;;;;;;;;;;;;;;;;;1043696;28;19990;-77
2023/01/17 04:30:22;;;;;;;;;;;;;;;;;;1043759;28;19912;-76
2023/01/17 04:30:53;;;;;;;;;;;;;;;;;;1048329;28;19920;-76
2023/01/17 04:31:24;;;;;;;;;;;;;;;;;;1048200;28;19909;-76
2023/01/17 04:31:55;;;;;;;;;;;;;;;;;;1042915;28;19939;-76
2023/01/17 04:32:28;;;;;;;;;;;;;;;;;;1043666;28;19928;-76
2023/01/17 04:32:58;;;;;;;;;;;;;;;;;;1043774;28;20391;-77
2023/01/17 04:33:29;;;;;;;;;;;;;;;;;;1039661;28;20548;-76
2023/01/17 04:34:00;;;;;;;;;;;;;;;;;;1043809;28;19927;-76
2023/01/17 04:34:31;;;;;;;;;;;;;;;;;;1043610;28;20481;-77
2023/01/17 04:35:03;;;;;;;;;;;;;;;;;;1044073;28;19912;-77
2023/01/17 04:35:34;;;;;;;;;;;;;;;;;;1048140;28;19920;-76
2023/01/17 04:36:05;;;;;;;;;;;;;;;;;;1048294;28;19908;-77
2023/01/17 04:36:36;;;;;;;;;;;;;;;;;;1047915;28;19924;-76
2023/01/17 04:37:07;;;;;;;;;;;;;;;;;;1048079;28;19916;-76
2023/01/17 04:37:38;;;;;;;;;;;;;;;;;;1043594;28;20026;-76
2023/01/17 04:38:09;;;;;;;;;;;;;;;;;;1043715;28;20296;-76
2023/01/17 04:38:40;;;;;;;;;;;;;;;;;;1043747;28;19964;-76
2023/01/17 04:39:11;;;;;;;;;;;;;;;;;;1043468;28;20003;-77
2023/01/17 04:39:42;;;;;;;;;;;;;;;;;;1043476;28;19909;-76
2023/01/17 04:40:12;;;;;;;;;;;;;;;;;;1043532;28;19971;-76
2023/01/17 04:40:43;;;;;;;;;;;;;;;;;;1043715;28;20442;-76
2023/01/17 04:41:14;;;;;;;;;;;;;;;;;;1043750;28;20673;-76
2023/01/17 04:41:45;;;;;;;;;;;;;;;;;;1043520;28;19915;-75
2023/01/17 04:42:16;;;;;;;;;;;;;;;;;;1043382;28;19948;-76
2023/01/17 04:42:47;;;;;;;;;;;;;;;;;;1043540;28;19939;-76
2023/01/17 04:43:18;;;;;;;;;;;;;;;;;;1043670;28;19916;-76
2023/01/17 04:43:48;;;;;;;;;;;;;;;;;;1039230;28;19917;-76
2023/01/17 04:44:19;;;;;;;;;;;;;;;;;;1039880;28;19909;-76
2023/01/17 04:44:50;;;;;;;;;;;;;;;;;;1043412;28;19909;-76
2023/01/17 04:45:21;;;;;;;;;;;;;;;;;;1043559;28;19959;-77
2023/01/17 04:45:52;;;;;;;;;;;;;;;;;;1043496;28;19919;-76
2023/01/17 04:46:23;;;;;;;;;;;;;;;;;;1039522;28;20435;-77
2023/01/17 04:46:54;;;;;;;;;;;;;;;;;;1035442;28;19959;-76
2023/01/17 04:47:25;;;;;;;;;;;;;;;;;;1035409;28;19909;-77
2023/01/17 04:47:55;;;;;;;;;;;;;;;;;;1035374;28;19956;-75
2023/01/17 04:48:26;;;;;;;;;;;;;;;;;;1035595;28;19913;-76
2023/01/17 04:48:59;;;;;;;;;;;;;;;;;;1034459;28;20418;-77
2023/01/17 04:49:30;;;;;;;;;;;;;;;;;;1035645;28;20355;-76
2023/01/17 04:50:01;;;;;;;;;;;;;;;;;;1035639;28;20362;-76
2023/01/17 04:50:31;;;;;;;;;;;;;;;;;;1035670;28;19914;-75
2023/01/17 04:51:02;;;;;;;;;;;;;;;;;;1039534;28;20375;-76
2023/01/17 04:51:33;;;;;;;;;;;;;;;;;;1040011;28;19921;-76